Time;durP1;ratioP1;P1;durP2;ratioP2;P2;SDS_P1;SDS_P2;PMS_P1;PMS_P2;Temp;Humidity;BMP_temperature;BMP_pressure;BME280_temperature;BME280_humidity;BME280_pressure;Samples;Min_cycle;Max_cycle;Signal;HPM_P1;HPM_P2
2022/10/15 00:00:46;;;;;;;;;;;13.00;99.90;;;;;;5137459;27;1395;-57
2022/10/15 00:03:24;;;;;;;;;;;13.00;99.90;;;;;;5137202;27;1273;-54
2022/10/15 00:06:04;;;;;;;;;;;13.00;99.90;;;;;;5137587;27;1375;-53
2022/10/15 00:08:42;;;;;;;;;;;13.00;99.90;;;;;;5138088;27;1268;-55
2022/10/15 00:11:21;;;;;;;;;;;13.00;99.90;;;;;;5127905;27;1399;-53
2022/10/15 00:13:59;;;;;;;;;;;13.00;99.90;;;;;;5100298;27;1329;-55
2022/10/15 00:16:36;;;;;;;;;;;12.90;99.90;;;;;;5137503;27;1347;-54
2022/10/15 00:19:15;;;;;;;;;;;12.90;99.90;;;;;;5136588;27;1511;-54
2022/10/15 00:21:53;;;;;;;;;;;12.90;99.90;;;;;;5120817;27;1687;-53
2022/10/15 00:24:31;;;;;;;;;;;12.90;99.90;;;;;;5148930;27;1738;-54
2022/10/15 00:27:09;;;;;;;;;;;12.80;99.90;;;;;;5137445;27;1657;-53
2022/10/15 00:29:48;;;;;;;;;;;12.80;99.90;;;;;;5151815;27;1565;-53
2022/10/15 00:32:27;;;;;;;;;;;12.80;99.90;;;;;;5127397;27;1388;-56
2022/10/15 00:35:06;;;;;;;;;;;12.80;99.90;;;;;;5128982;27;2141;-54
2022/10/15 00:37:44;;;;;;;;;;;12.80;99.90;;;;;;5127895;27;1898;-52
2022/10/15 00:40:22;;;;;;;;;;;12.90;99.90;;;;;;5136520;27;1323;-53
2022/10/15 00:43:00;;;;;;;;;;;12.80;99.90;;;;;;5137357;27;1739;-53
2022/10/15 00:45:39;;;;;;;;;;;12.80;99.90;;;;;;5137849;27;1669;-53
2022/10/15 00:48:17;;;;;;;;;;;12.80;99.90;;;;;;5138500;27;1812;-57
2022/10/15 00:50:56;;;;;;;;;;;12.80;99.90;;;;;;5137801;27;1313;-57
2022/10/15 00:53:34;;;;;;;;;;;12.80;99.90;;;;;;5138130;27;1381;-56
2022/10/15 00:56:12;;;;;;;;;;;12.80;99.90;;;;;;5138491;27;1312;-54
2022/10/15 00:58:50;;;;;;;;;;;12.80;99.90;;;;;;5137075;27;1403;-53
2022/10/15 01:01:28;;;;;;;;;;;12.80;99.90;;;;;;5130663;27;1417;-53
2022/10/15 01:04:17;;;;;;;;;;;12.80;99.90;;;;;;5138529;27;1331;-53
2022/10/15 01:06:56;;;;;;;;;;;12.80;99.90;;;;;;5125562;27;1791;-54
2022/10/15 01:09:34;;;;;;;;;;;12.80;99.90;;;;;;5137426;27;1662;-56
2022/10/15 01:12:15;;;;;;;;;;;12.80;99.90;;;;;;5124094;27;1319;-54
2022/10/15 01:14:57;;;;;;;;;;;12.80;99.90;;;;;;5131462;27;1773;-56
2022/10/15 01:17:39;;;;;;;;;;;12.80;99.90;;;;;;5131091;27;1848;-52
2022/10/15 01:20:48;;;;;;;;;;;12.80;99.90;;;;;;5126100;27;1423;-54
2022/10/15 01:23:52;;;;;;;;;;;12.80;99.90;;;;;;5157381;27;1319;-54
2022/10/15 01:26:50;;;;;;;;;;;12.80;99.90;;;;;;5135385;27;1911;-55
2022/10/15 01:29:40;;;;;;;;;;;12.80;99.90;;;;;;5133888;27;2058;-53
2022/10/15 01:32:22;;;;;;;;;;;12.90;99.90;;;;;;5114222;27;1384;-54
2022/10/15 01:35:02;;;;;;;;;;;12.80;99.90;;;;;;5138852;27;1553;-55
2022/10/15 01:37:43;;;;;;;;;;;12.80;99.90;;;;;;5137544;27;1554;-54
2022/10/15 01:40:26;;;;;;;;;;;12.80;99.90;;;;;;5137769;27;1700;-54
2022/10/15 01:43:04;;;;;;;;;;;12.90;99.90;;;;;;5137462;27;1348;-56
2022/10/15 01:46:10;;;;;;;;;;;12.90;99.90;;;;;;5137308;27;1545;-53
2022/10/15 01:49:11;;;;;;;;;;;12.90;99.90;;;;;;5137203;27;1284;-54
2022/10/15 01:51:50;;;;;;;;;;;12.90;99.90;;;;;;5126440;27;1409;-53
2022/10/15 01:54:27;;;;;;;;;;;13.00;99.90;;;;;;5137303;27;1345;-55
2022/10/15 01:57:06;;;;;;;;;;;12.90;99.90;;;;;;5099869;27;1700;-54
2022/10/15 01:59:44;;;;;;;;;;;12.90;99.90;;;;;;5136213;27;1347;-55
2022/10/15 02:02:22;;;;;;;;;;;12.90;99.90;;;;;;5084438;27;1794;-54
2022/10/15 02:05:00;;;;;;;;;;;12.90;99.90;;;;;;5138744;27;1296;-53
2022/10/15 02:07:43;;;;;;;;;;;12.90;99.90;;;;;;5137617;27;1506;-53
2022/10/15 02:10:26;;;;;;;;;;;12.90;99.90;;;;;;5135501;27;1805;-55
2022/10/15 02:13:09;;;;;;;;;;;12.90;99.90;;;;;;5137126;27;1394;-53
2022/10/15 02:15:51;;;;;;;;;;;12.90;99.90;;;;;;5128597;27;1349;-57
2022/10/15 02:18:31;;;;;;;;;;;12.90;99.90;;;;;;5136850;27;1739;-53
2022/10/15 02:21:14;;;;;;;;;;;12.90;99.90;;;;;;5111666;27;2136;-53
2022/10/15 02:23:53;;;;;;;;;;;12.90;99.90;;;;;;5125760;27;1373;-56
2022/10/15 02:26:35;;;;;;;;;;;12.90;99.90;;;;;;5136831;27;1366;-55
2022/10/15 02:29:18;;;;;;;;;;;12.90;99.90;;;;;;5137128;27;1368;-54
2022/10/15 02:31:58;;;;;;;;;;;12.90;99.90;;;;;;5087520;27;1352;-56
2022/10/15 02:34:36;;;;;;;;;;;12.80;99.90;;;;;;5130605;27;1881;-52
2022/10/15 02:37:15;;;;;;;;;;;12.90;99.90;;;;;;5117085;27;1303;-54
2022/10/15 02:39:55;;;;;;;;;;;12.90;99.90;;;;;;5136233;27;1605;-53
2022/10/15 02:42:34;;;;;;;;;;;12.90;99.90;;;;;;5116166;27;1735;-54
2022/10/15 02:45:12;;;;;;;;;;;12.90;99.90;;;;;;5130508;27;1690;-53
2022/10/15 02:47:52;;;;;;;;;;;12.90;99.90;;;;;;5123198;27;1343;-56
2022/10/15 02:50:30;;;;;;;;;;;12.90;99.90;;;;;;5126573;27;1390;-54
2022/10/15 02:53:08;;;;;;;;;;;12.90;99.90;;;;;;5137521;27;1823;-53
2022/10/15 02:55:46;;;;;;;;;;;12.90;99.90;;;;;;5137375;27;1339;-53
2022/10/15 02:58:25;;;;;;;;;;;12.90;99.90;;;;;;5155105;27;1718;-56
2022/10/15 03:01:03;;;;;;;;;;;12.90;99.90;;;;;;5132565;27;1335;-55
2022/10/15 03:03:41;;;;;;;;;;;12.90;99.90;;;;;;5134375;27;1429;-53
2022/10/15 03:06:19;;;;;;;;;;;12.90;99.90;;;;;;5106894;27;1402;-56
2022/10/15 03:08:58;;;;;;;;;;;12.90;99.90;;;;;;5135949;27;1332;-54
2022/10/15 03:11:37;;;;;;;;;;;12.90;99.90;;;;;;5126325;27;1706;-54
2022/10/15 03:14:16;;;;;;;;;;;12.90;99.90;;;;;;5125434;27;1331;-55
2022/10/15 03:16:54;;;;;;;;;;;12.90;99.90;;;;;;5136892;27;1540;-55
2022/10/15 03:19:32;;;;;;;;;;;12.90;99.90;;;;;;5136895;27;1323;-54
2022/10/15 03:22:10;;;;;;;;;;;12.90;99.90;;;;;;5123711;27;1447;-53
2022/10/15 03:25:00;;;;;;;;;;;12.80;99.90;;;;;;5128619;27;1646;-54
2022/10/15 03:27:39;;;;;;;;;;;12.80;99.90;;;;;;5136217;27;1349;-56
2022/10/15 03:30:30;;;;;;;;;;;12.90;99.90;;;;;;5117820;27;1648;-53
2022/10/15 03:33:09;;;;;;;;;;;12.80;99.90;;;;;;5135053;27;1569;-53
2022/10/15 03:35:47;;;;;;;;;;;12.90;99.90;;;;;;5112595;27;2048;-53
2022/10/15 03:38:25;;;;;;;;;;;12.90;99.90;;;;;;5142301;27;1710;-57
2022/10/15 03:41:03;;;;;;;;;;;12.80;99.90;;;;;;5132363;27;1407;-54
2022/10/15 03:43:51;;;;;;;;;;;12.80;99.90;;;;;;5137527;27;1395;-52
2022/10/15 03:46:29;;;;;;;;;;;12.80;99.90;;;;;;5134983;27;1687;-53
2022/10/15 03:49:08;;;;;;;;;;;12.80;99.90;;;;;;5113726;27;1813;-54
2022/10/15 03:51:46;;;;;;;;;;;12.80;99.90;;;;;;5115572;27;1706;-56
2022/10/15 03:54:24;;;;;;;;;;;12.80;99.90;;;;;;5125776;27;1659;-56
2022/10/15 03:57:02;;;;;;;;;;;12.80;99.90;;;;;;5132499;27;1668;-56
2022/10/15 03:59:44;;;;;;;;;;;12.80;99.90;;;;;;5119710;27;1365;-56
2022/10/15 04:02:22;;;;;;;;;;;12.80;99.90;;;;;;5107340;27;1815;-55
2022/10/15 04:05:09;;;;;;;;;;;12.80;99.90;;;;;;5055357;28;1735;-55
2022/10/15 04:07:59;;;;;;;;;;;12.80;99.90;;;;;;5119613;27;1658;-55
2022/10/15 04:10:39;;;;;;;;;;;12.80;99.90;;;;;;5121431;27;1916;-56
2022/10/15 04:13:18;;;;;;;;;;;12.80;99.90;;;;;;5134503;27;1319;-55
2022/10/15 04:15:56;;;;;;;;;;;12.80;99.90;;;;;;5099231;27;1337;-56
2022/10/15 04:18:34;;;;;;;;;;;12.80;99.90;;;;;;5137447;27;1463;-54
2022/10/15 04:21:12;;;;;;;;;;;12.80;99.90;;;;;;5094486;27;1527;-56
2022/10/15 04:23:52;;;;;;;;;;;12.80;99.90;;;;;;5136219;27;1724;-57
2022/10/15 04:26:38;;;;;;;;;;;12.80;99.90;;;;;;5128502;27;1987;-56
2022/10/15 04:29:17;;;;;;;;;;;12.80;99.90;;;;;;5133256;27;1983;-56
2022/10/15 04:31:55;;;;;;;;;;;12.80;99.90;;;;;;5124922;27;1787;-57
2022/10/15 04:34:33;;;;;;;;;;;12.80;99.90;;;;;;5136884;27;1335;-55
2022/10/15 04:37:11;;;;;;;;;;;12.90;99.90;;;;;;5137120;27;1243;-56
2022/10/15 04:39:49;;;;;;;;;;;12.80;99.90;;;;;;5117686;27;1942;-56
2022/10/15 04:42:29;;;;;;;;;;;12.80;99.90;;;;;;5113542;27;1802;-56
2022/10/15 04:45:08;;;;;;;;;;;12.90;99.90;;;;;;5095230;27;2261;-57
2022/10/15 04:47:46;;;;;;;;;;;12.90;99.90;;;;;;5121279;27;1404;-57
2022/10/15 04:50:25;;;;;;;;;;;12.90;99.90;;;;;;5122381;27;1487;-56
2022/10/15 04:53:22;;;;;;;;;;;12.90;99.90;;;;;;5121071;27;1957;-57
2022/10/15 04:56:04;;;;;;;;;;;12.90;99.90;;;;;;5138030;27;1697;-56
2022/10/15 04:58:41;;;;;;;;;;;12.90;99.90;;;;;;5129828;27;2162;-56
2022/10/15 05:01:20;;;;;;;;;;;12.90;99.90;;;;;;5120896;27;1477;-56
2022/10/15 05:04:15;;;;;;;;;;;12.90;99.90;;;;;;5122466;27;1904;-56
2022/10/15 05:06:53;;;;;;;;;;;12.90;99.90;;;;;;5119149;27;2193;-56
2022/10/15 05:09:31;;;;;;;;;;;12.90;99.90;;;;;;5133604;27;1835;-55
2022/10/15 05:12:10;;;;;;;;;;;12.90;99.90;;;;;;5122844;27;1768;-56
2022/10/15 05:14:48;;;;;;;;;;;12.90;99.90;;;;;;5121116;27;2116;-56
2022/10/15 05:17:31;;;;;;;;;;;12.80;99.90;;;;;;5134939;27;1658;-56
2022/10/15 05:20:10;;;;;;;;;;;12.80;99.90;;;;;;5127777;27;1533;-57
2022/10/15 05:22:47;;;;;;;;;;;12.90;99.90;;;;;;5111055;27;1597;-57
2022/10/15 05:25:26;;;;;;;;;;;12.90;99.90;;;;;;5131180;27;1983;-56
2022/10/15 05:28:04;;;;;;;;;;;12.90;99.90;;;;;;5116999;27;1767;-57
2022/10/15 05:30:42;;;;;;;;;;;12.90;99.90;;;;;;5125212;27;1976;-56
2022/10/15 05:33:20;;;;;;;;;;;12.90;99.90;;;;;;5117485;27;2040;-56
2022/10/15 05:36:07;;;;;;;;;;;12.90;99.90;;;;;;5116672;27;1736;-56
2022/10/15 05:38:45;;;;;;;;;;;12.90;99.90;;;;;;5122106;27;1459;-56
2022/10/15 05:41:24;;;;;;;;;;;12.90;99.90;;;;;;5114369;27;1447;-56
2022/10/15 05:44:01;;;;;;;;;;;12.90;99.90;;;;;;5138516;27;1327;-56
2022/10/15 05:46:41;;;;;;;;;;;13.00;99.90;;;;;;5080957;27;1363;-55
2022/10/15 05:49:19;;;;;;;;;;;12.90;99.90;;;;;;5138060;27;1320;-56
2022/10/15 05:52:04;;;;;;;;;;;12.90;99.90;;;;;;5125840;27;1746;-56
2022/10/15 05:55:11;;;;;;;;;;;12.90;99.90;;;;;;5132248;27;1956;-56
2022/10/15 05:57:49;;;;;;;;;;;12.90;99.90;;;;;;5115022;27;1942;-57
2022/10/15 06:00:28;;;;;;;;;;;12.90;99.90;;;;;;5127281;27;1647;-56
2022/10/15 06:03:06;;;;;;;;;;;13.00;99.90;;;;;;5137872;27;1688;-56
2022/10/15 06:05:44;;;;;;;;;;;13.00;99.90;;;;;;5127567;27;1662;-56
2022/10/15 06:08:23;;;;;;;;;;;13.00;99.90;;;;;;5131379;27;2017;-55
2022/10/15 06:11:03;;;;;;;;;;;13.00;99.90;;;;;;5134179;27;1863;-56
2022/10/15 06:13:42;;;;;;;;;;;13.10;99.90;;;;;;5122174;27;2079;-54
2022/10/15 06:16:20;;;;;;;;;;;13.10;99.90;;;;;;5121344;27;1740;-55
2022/10/15 06:18:58;;;;;;;;;;;13.10;99.90;;;;;;5139093;27;1622;-55
2022/10/15 06:21:36;;;;;;;;;;;13.20;99.90;;;;;;5092584;27;1390;-56
2022/10/15 06:24:15;;;;;;;;;;;13.20;99.90;;;;;;5139051;27;1460;-55
2022/10/15 06:26:53;;;;;;;;;;;13.30;99.90;;;;;;5138163;27;1748;-54
2022/10/15 06:29:31;;;;;;;;;;;13.30;99.90;;;;;;5131072;27;1951;-55
2022/10/15 06:32:11;;;;;;;;;;;13.40;99.90;;;;;;5121495;27;1614;-55
2022/10/15 06:34:52;;;;;;;;;;;13.50;99.90;;;;;;5138507;27;1665;-55
2022/10/15 06:37:30;;;;;;;;;;;13.60;99.90;;;;;;5118789;27;1371;-54
2022/10/15 06:40:10;;;;;;;;;;;13.70;99.90;;;;;;5139331;27;1379;-56
2022/10/15 06:42:52;;;;;;;;;;;13.80;99.90;;;;;;5115608;27;1881;-55
2022/10/15 06:45:30;;;;;;;;;;;13.80;99.90;;;;;;5137727;27;1833;-55
2022/10/15 06:48:08;;;;;;;;;;;13.80;99.90;;;;;;5133285;27;1663;-54
2022/10/15 06:50:46;;;;;;;;;;;13.80;99.90;;;;;;5124939;27;1407;-55
2022/10/15 06:53:25;;;;;;;;;;;13.80;99.90;;;;;;5116626;27;1658;-55
2022/10/15 06:56:03;;;;;;;;;;;13.80;99.90;;;;;;5138508;27;1502;-55
2022/10/15 06:58:46;;;;;;;;;;;13.90;99.90;;;;;;5135413;27;1425;-55
2022/10/15 07:01:24;;;;;;;;;;;14.00;99.90;;;;;;5130346;27;1562;-55
2022/10/15 07:04:02;;;;;;;;;;;14.20;99.90;;;;;;5132946;27;1663;-54
2022/10/15 07:06:41;;;;;;;;;;;14.30;99.90;;;;;;5117000;27;1639;-55
2022/10/15 07:09:19;;;;;;;;;;;14.40;99.90;;;;;;5136123;27;1443;-54
2022/10/15 07:11:57;;;;;;;;;;;14.30;99.90;;;;;;5125856;27;1682;-55
2022/10/15 07:14:35;;;;;;;;;;;14.30;99.90;;;;;;5139454;27;1307;-55
2022/10/15 07:17:13;;;;;;;;;;;14.30;99.90;;;;;;5130824;27;2055;-54
2022/10/15 07:19:52;;;;;;;;;;;14.30;99.90;;;;;;5131026;27;1741;-54
2022/10/15 07:22:30;;;;;;;;;;;14.40;99.90;;;;;;5060799;27;1740;-56
2022/10/15 07:25:09;;;;;;;;;;;14.50;99.90;;;;;;5138504;27;1357;-54
2022/10/15 07:27:46;;;;;;;;;;;14.60;99.90;;;;;;5134204;27;1358;-54
2022/10/15 07:30:26;;;;;;;;;;;14.60;99.90;;;;;;5140489;27;1421;-55
2022/10/15 07:33:03;;;;;;;;;;;14.70;99.90;;;;;;5137139;27;1295;-55
2022/10/15 07:35:41;;;;;;;;;;;14.90;99.90;;;;;;5119273;27;2023;-55
2022/10/15 07:38:19;;;;;;;;;;;14.90;99.90;;;;;;5133257;27;1619;-55
2022/10/15 07:40:59;;;;;;;;;;;14.90;99.90;;;;;;5134491;27;1530;-54
2022/10/15 07:43:37;;;;;;;;;;;14.80;99.90;;;;;;5138172;27;1742;-55
2022/10/15 07:46:14;;;;;;;;;;;14.80;99.90;;;;;;5122186;27;1447;-54
2022/10/15 07:48:52;;;;;;;;;;;14.80;99.90;;;;;;5119126;27;1438;-55
2022/10/15 07:51:30;;;;;;;;;;;14.80;99.90;;;;;;5129949;27;1445;-55
2022/10/15 07:54:09;;;;;;;;;;;14.80;99.90;;;;;;5139097;27;1332;-55
2022/10/15 07:56:47;;;;;;;;;;;14.80;99.90;;;;;;5127876;27;1332;-55
2022/10/15 07:59:25;;;;;;;;;;;14.70;99.90;;;;;;5132308;27;1717;-54
2022/10/15 08:02:03;;;;;;;;;;;14.80;99.90;;;;;;5124182;27;1687;-55
2022/10/15 08:04:42;;;;;;;;;;;14.80;99.90;;;;;;5118057;27;1471;-55
2022/10/15 08:07:20;;;;;;;;;;;14.90;99.90;;;;;;5122694;27;1360;-55
2022/10/15 08:09:58;;;;;;;;;;;14.90;99.90;;;;;;5138933;27;1355;-55
2022/10/15 08:12:38;;;;;;;;;;;15.00;99.90;;;;;;5117584;27;1351;-55
2022/10/15 08:15:16;;;;;;;;;;;15.10;99.90;;;;;;5139252;27;1343;-54
2022/10/15 08:17:54;;;;;;;;;;;15.20;99.90;;;;;;5139087;27;1412;-54
2022/10/15 08:20:33;;;;;;;;;;;15.30;99.90;;;;;;5130224;27;1620;-54
2022/10/15 08:23:15;;;;;;;;;;;15.50;99.90;;;;;;5130264;27;1651;-55
2022/10/15 08:25:52;;;;;;;;;;;15.50;99.90;;;;;;5122125;27;1419;-55
2022/10/15 08:28:31;;;;;;;;;;;15.60;99.90;;;;;;5124955;27;1430;-55
2022/10/15 08:31:09;;;;;;;;;;;15.70;99.90;;;;;;5127267;27;1667;-54
2022/10/15 08:33:47;;;;;;;;;;;15.60;99.90;;;;;;5121921;27;1658;-55
2022/10/15 08:36:25;;;;;;;;;;;15.60;99.90;;;;;;5137879;27;1646;-54
2022/10/15 08:39:06;;;;;;;;;;;15.70;99.90;;;;;;5136183;27;1364;-55
2022/10/15 08:41:45;;;;;;;;;;;15.80;99.90;;;;;;5120881;27;1869;-54
2022/10/15 08:44:24;;;;;;;;;;;15.80;99.90;;;;;;5139588;27;1340;-55
2022/10/15 08:47:05;;;;;;;;;;;16.00;99.90;;;;;;5139622;27;1271;-54
2022/10/15 08:49:44;;;;;;;;;;;16.00;99.90;;;;;;5139089;27;1351;-55
2022/10/15 08:52:25;;;;;;;;;;;16.10;99.90;;;;;;5123817;27;1384;-54
2022/10/15 08:55:03;;;;;;;;;;;16.00;99.90;;;;;;5156560;27;1765;-55
2022/10/15 08:57:43;;;;;;;;;;;16.00;99.90;;;;;;5128597;27;1644;-55
2022/10/15 09:00:21;;;;;;;;;;;16.00;99.90;;;;;;5131324;27;1637;-55
2022/10/15 09:03:02;;;;;;;;;;;16.00;99.90;;;;;;5116099;27;1526;-54
2022/10/15 09:05:44;;;;;;;;;;;16.10;99.90;;;;;;5137229;27;1647;-55
2022/10/15 09:08:25;;;;;;;;;;;16.20;99.90;;;;;;5138915;27;1630;-56
2022/10/15 09:11:05;;;;;;;;;;;16.50;99.90;;;;;;5134705;27;1304;-55
2022/10/15 09:13:43;;;;;;;;;;;16.70;99.90;;;;;;5117818;27;1534;-55
2022/10/15 09:16:22;;;;;;;;;;;17.00;99.90;;;;;;5138768;27;1356;-55
2022/10/15 09:19:01;;;;;;;;;;;17.30;99.90;;;;;;5138857;27;1723;-56
2022/10/15 09:21:39;;;;;;;;;;;17.60;99.90;;;;;;5114621;27;1986;-56
2022/10/15 09:24:20;;;;;;;;;;;17.80;99.90;;;;;;5121768;27;1359;-55
2022/10/15 09:27:02;;;;;;;;;;;18.10;99.90;;;;;;5139397;27;1907;-55
2022/10/15 09:29:44;;;;;;;;;;;18.40;99.90;;;;;;5131671;27;1573;-56
2022/10/15 09:32:26;;;;;;;;;;;18.50;99.90;;;;;;5124695;27;1634;-55
2022/10/15 09:35:11;;;;;;;;;;;18.50;99.90;;;;;;5139662;27;1713;-56
2022/10/15 09:37:51;;;;;;;;;;;18.50;99.90;;;;;;5136557;27;1241;-55
2022/10/15 09:40:35;;;;;;;;;;;18.30;99.90;;;;;;5134449;27;1688;-56
2022/10/15 09:43:12;;;;;;;;;;;18.20;99.90;;;;;;5135386;27;2137;-55
2022/10/15 09:45:50;;;;;;;;;;;18.20;99.90;;;;;;5125947;27;1536;-56
2022/10/15 09:48:31;;;;;;;;;;;18.10;99.90;;;;;;5120825;27;1734;-56
2022/10/15 09:51:15;;;;;;;;;;;17.90;99.90;;;;;;5096775;27;1382;-57
2022/10/15 09:53:56;;;;;;;;;;;17.80;99.90;;;;;;5135714;27;1980;-55
2022/10/15 09:56:35;;;;;;;;;;;17.70;99.90;;;;;;5135205;27;1398;-55
2022/10/15 09:59:17;;;;;;;;;;;17.70;99.90;;;;;;5134113;27;1802;-55
2022/10/15 10:01:58;;;;;;;;;;;17.80;99.90;;;;;;5122398;27;1713;-54
2022/10/15 10:04:37;;;;;;;;;;;18.10;99.90;;;;;;5131509;27;1945;-55
2022/10/15 10:07:27;;;;;;;;;;;18.20;99.90;;;;;;5125335;27;1942;-54
2022/10/15 10:10:07;;;;;;;;;;;18.40;99.90;;;;;;5123165;27;1378;-54
2022/10/15 10:12:45;;;;;;;;;;;18.70;99.90;;;;;;5116326;27;1344;-54
2022/10/15 10:15:29;;;;;;;;;;;19.00;99.90;;;;;;5136573;27;1435;-54
2022/10/15 10:18:17;;;;;;;;;;;19.20;99.90;;;;;;5136892;27;1346;-54
2022/10/15 10:20:57;;;;;;;;;;;19.30;99.90;;;;;;5128298;27;1707;-54
2022/10/15 10:23:36;;;;;;;;;;;19.40;99.90;;;;;;5135842;27;1453;-54
2022/10/15 10:26:13;;;;;;;;;;;19.60;99.90;;;;;;5131026;27;1718;-54
2022/10/15 10:28:52;;;;;;;;;;;19.80;99.90;;;;;;5110651;27;1369;-54
2022/10/15 10:31:31;;;;;;;;;;;19.80;99.90;;;;;;5129344;27;1344;-54
2022/10/15 10:34:14;;;;;;;;;;;19.60;99.90;;;;;;5132832;27;2043;-54
2022/10/15 10:36:53;;;;;;;;;;;19.40;99.90;;;;;;5133073;27;1485;-54
2022/10/15 10:39:32;;;;;;;;;;;19.00;99.90;;;;;;5133603;27;1494;-56
2022/10/15 10:42:23;;;;;;;;;;;18.70;99.90;;;;;;5073043;27;1515;-53
2022/10/15 10:45:15;;;;;;;;;;;18.50;99.90;;;;;;5128901;27;1987;-54
2022/10/15 10:47:53;;;;;;;;;;;18.60;99.90;;;;;;5114838;27;1472;-55
2022/10/15 10:50:33;;;;;;;;;;;18.70;99.90;;;;;;5118134;27;1827;-54
2022/10/15 10:53:22;;;;;;;;;;;19.00;99.90;;;;;;5125506;27;1642;-55
2022/10/15 10:56:01;;;;;;;;;;;19.40;99.90;;;;;;5087310;27;1432;-54
2022/10/15 10:58:39;;;;;;;;;;;19.70;99.90;;;;;;5127419;27;1349;-53
2022/10/15 11:01:17;;;;;;;;;;;20.00;99.90;;;;;;5125008;27;1679;-53
2022/10/15 11:03:55;;;;;;;;;;;20.10;99.90;;;;;;5129154;27;1906;-55
2022/10/15 11:06:51;;;;;;;;;;;20.20;99.90;;;;;;5117089;27;1461;-54
2022/10/15 11:09:42;;;;;;;;;;;20.30;99.90;;;;;;5097152;27;1785;-53
2022/10/15 11:12:31;;;;;;;;;;;20.40;99.90;;;;;;5098071;27;2057;-52
2022/10/15 11:15:17;;;;;;;;;;;20.40;99.90;;;;;;5124542;27;1285;-53
2022/10/15 11:17:59;;;;;;;;;;;20.40;99.90;;;;;;5126734;27;1681;-53
2022/10/15 11:20:45;;;;;;;;;;;20.30;99.90;;;;;;5115207;27;1393;-53
2022/10/15 11:23:31;;;;;;;;;;;20.00;99.90;;;;;;5107271;27;2133;-54
2022/10/15 11:26:17;;;;;;;;;;;19.90;99.90;;;;;;5117024;27;1847;-53
2022/10/15 11:28:59;;;;;;;;;;;19.70;99.90;;;;;;5126333;27;2048;-55
2022/10/15 11:31:41;;;;;;;;;;;19.60;99.90;;;;;;5124972;27;1751;-54
2022/10/15 11:34:26;;;;;;;;;;;19.90;99.90;;;;;;5117026;27;1395;-54
2022/10/15 11:37:14;;;;;;;;;;;20.10;99.90;;;;;;5124423;27;1428;-54
2022/10/15 11:39:57;;;;;;;;;;;20.10;99.90;;;;;;5124680;27;2129;-54
2022/10/15 11:42:39;;;;;;;;;;;19.90;99.90;;;;;;5114161;27;2048;-55
2022/10/15 11:45:47;;;;;;;;;;;19.50;99.90;;;;;;5133802;27;2027;-55
2022/10/15 11:48:33;;;;;;;;;;;19.00;99.90;;;;;;5130769;27;1592;-55
2022/10/15 11:51:17;;;;;;;;;;;18.60;99.90;;;;;;5126283;27;1935;-55
2022/10/15 11:54:13;;;;;;;;;;;18.50;99.90;;;;;;5130141;27;2014;-55
2022/10/15 11:56:53;;;;;;;;;;;18.60;99.90;;;;;;5128004;27;1608;-54
2022/10/15 11:59:38;;;;;;;;;;;18.70;99.90;;;;;;5108806;27;2029;-56
2022/10/15 12:02:17;;;;;;;;;;;18.90;99.90;;;;;;5115212;27;1310;-54
2022/10/15 12:04:57;;;;;;;;;;;19.10;99.90;;;;;;5147237;27;1359;-55
2022/10/15 12:07:38;;;;;;;;;;;19.50;99.90;;;;;;5126311;27;1351;-55
2022/10/15 12:10:36;;;;;;;;;;;20.00;99.90;;;;;;5135692;27;1658;-55
2022/10/15 12:13:19;;;;;;;;;;;20.40;99.90;;;;;;5128950;27;1707;-56
2022/10/15 12:16:05;;;;;;;;;;;20.90;99.90;;;;;;5126128;27;1323;-56
2022/10/15 12:18:45;;;;;;;;;;;21.00;99.90;;;;;;5123740;27;1868;-57
2022/10/15 12:21:34;;;;;;;;;;;20.80;99.90;;;;;;5105994;27;1921;-56
2022/10/15 12:24:30;;;;;;;;;;;20.70;99.90;;;;;;5132457;27;1753;-54
2022/10/15 12:27:16;;;;;;;;;;;20.40;99.90;;;;;;5134689;27;1737;-55
2022/10/15 12:30:11;;;;;;;;;;;20.20;99.90;;;;;;5115079;27;1330;-54
2022/10/15 12:32:49;;;;;;;;;;;19.80;99.90;;;;;;5104782;27;1552;-54
2022/10/15 12:35:37;;;;;;;;;;;19.30;99.90;;;;;;5136091;27;1392;-55
2022/10/15 12:38:21;;;;;;;;;;;19.40;99.90;;;;;;5132815;27;1348;-55
2022/10/15 12:41:01;;;;;;;;;;;19.50;99.90;;;;;;5117712;27;1832;-54
2022/10/15 12:43:41;;;;;;;;;;;19.60;99.90;;;;;;5122191;27;1278;-55
2022/10/15 12:46:17;;;;;;;;;;;19.50;99.90;;;;;;5118813;27;1868;-55
2022/10/15 12:48:57;;;;;;;;;;;19.60;99.90;;;;;;5135810;27;1324;-55
2022/10/15 12:51:34;;;;;;;;;;;19.70;99.90;;;;;;5127581;27;1505;-55
2022/10/15 12:54:29;;;;;;;;;;;19.90;99.90;;;;;;5136187;27;1674;-55
2022/10/15 12:57:23;;;;;;;;;;;20.00;99.90;;;;;;5098075;27;1317;-54
2022/10/15 13:00:16;;;;;;;;;;;20.00;99.90;;;;;;5127402;27;1621;-54
2022/10/15 13:02:59;;;;;;;;;;;20.10;99.90;;;;;;5115199;27;1289;-55
2022/10/15 13:05:39;;;;;;;;;;;20.20;99.90;;;;;;5135474;27;1685;-55
2022/10/15 13:08:19;;;;;;;;;;;20.50;99.90;;;;;;5133376;27;1487;-55
2022/10/15 13:10:58;;;;;;;;;;;20.70;99.90;;;;;;5136486;27;1547;-53
2022/10/15 13:13:36;;;;;;;;;;;20.90;99.90;;;;;;5132608;27;1693;-54
2022/10/15 13:16:14;;;;;;;;;;;21.20;99.90;;;;;;5135236;27;1666;-54
2022/10/15 13:18:56;;;;;;;;;;;21.30;99.90;;;;;;5130501;27;1695;-54
2022/10/15 13:21:48;;;;;;;;;;;21.50;99.90;;;;;;5112331;27;2126;-54
2022/10/15 13:24:25;;;;;;;;;;;21.30;99.90;;;;;;5122333;27;1453;-54
2022/10/15 13:27:04;;;;;;;;;;;20.60;99.90;;;;;;5136586;27;1354;-55
2022/10/15 13:29:52;;;;;;;;;;;20.20;99.90;;;;;;5116973;27;1343;-55
2022/10/15 13:32:33;;;;;;;;;;;20.00;99.90;;;;;;5119964;27;1749;-53
2022/10/15 13:35:12;;;;;;;;;;;19.80;99.90;;;;;;5136068;27;2227;-53
2022/10/15 13:37:49;;;;;;;;;;;19.70;99.90;;;;;;5132007;27;1261;-55
2022/10/15 13:40:28;;;;;;;;;;;19.60;99.90;;;;;;5115474;27;1508;-55
2022/10/15 13:43:06;;;;;;;;;;;19.60;99.90;;;;;;5135305;27;1582;-55
2022/10/15 13:45:47;;;;;;;;;;;19.40;99.90;;;;;;5128619;27;2264;-54
2022/10/15 13:48:26;;;;;;;;;;;19.30;99.90;;;;;;5130638;27;1673;-54
2022/10/15 13:51:05;;;;;;;;;;;19.40;99.90;;;;;;5113957;27;1594;-54
2022/10/15 13:53:43;;;;;;;;;;;19.70;99.90;;;;;;5113934;27;2081;-56
2022/10/15 13:56:24;;;;;;;;;;;19.90;99.90;;;;;;5116549;27;1534;-55
2022/10/15 13:59:03;;;;;;;;;;;20.00;99.90;;;;;;5120366;27;1673;-55
2022/10/15 14:01:45;;;;;;;;;;;19.90;99.90;;;;;;5126785;27;1474;-54
2022/10/15 14:04:23;;;;;;;;;;;19.90;99.90;;;;;;5131965;27;1759;-55
2022/10/15 14:07:01;;;;;;;;;;;19.70;99.90;;;;;;5135749;27;1905;-54
2022/10/15 14:09:39;;;;;;;;;;;19.50;99.90;;;;;;5135687;27;1310;-55
2022/10/15 14:12:17;;;;;;;;;;;19.40;99.90;;;;;;5109896;27;1840;-55
2022/10/15 14:14:55;;;;;;;;;;;19.30;99.90;;;;;;5135889;27;1327;-54
2022/10/15 14:17:33;;;;;;;;;;;19.40;99.90;;;;;;5135534;27;1670;-54
2022/10/15 14:20:16;;;;;;;;;;;19.40;99.90;;;;;;5094874;27;1653;-54
2022/10/15 14:22:54;;;;;;;;;;;19.40;99.90;;;;;;5115363;27;1623;-54
2022/10/15 14:25:33;;;;;;;;;;;19.40;99.90;;;;;;5076815;27;2214;-55
2022/10/15 14:28:18;;;;;;;;;;;19.30;99.90;;;;;;5130233;27;1552;-55
2022/10/15 14:30:56;;;;;;;;;;;19.20;99.90;;;;;;5093563;27;1309;-54
2022/10/15 14:33:39;;;;;;;;;;;19.10;99.90;;;;;;5117348;27;2008;-54
2022/10/15 14:36:24;;;;;;;;;;;19.00;99.90;;;;;;5133111;27;1696;-54
2022/10/15 14:39:33;;;;;;;;;;;19.00;99.90;;;;;;5124969;27;1776;-53
2022/10/15 14:42:24;;;;;;;;;;;19.20;99.90;;;;;;5116370;27;1782;-54
2022/10/15 14:45:12;;;;;;;;;;;19.00;99.90;;;;;;5134262;27;1534;-55
2022/10/15 14:47:50;;;;;;;;;;;19.00;99.90;;;;;;5122343;27;1683;-54
2022/10/15 14:50:29;;;;;;;;;;;18.90;99.90;;;;;;5139360;27;1702;-55
2022/10/15 14:53:09;;;;;;;;;;;18.80;99.90;;;;;;5136259;27;1328;-54
2022/10/15 14:55:51;;;;;;;;;;;18.60;99.90;;;;;;5124595;27;1324;-54
2022/10/15 14:58:30;;;;;;;;;;;18.40;99.90;;;;;;5132811;27;1574;-55
2022/10/15 15:01:08;;;;;;;;;;;18.40;99.90;;;;;;5117876;27;1658;-55
2022/10/15 15:03:48;;;;;;;;;;;18.30;99.90;;;;;;5084567;27;1669;-54
2022/10/15 15:06:26;;;;;;;;;;;18.00;99.90;;;;;;5116061;27;1884;-55
2022/10/15 15:09:04;;;;;;;;;;;17.70;99.90;;;;;;5092936;27;1651;-54
2022/10/15 15:11:42;;;;;;;;;;;17.50;99.90;;;;;;5085274;27;1404;-55
2022/10/15 15:14:23;;;;;;;;;;;17.20;99.90;;;;;;5114379;27;1585;-54
2022/10/15 15:17:01;;;;;;;;;;;17.00;99.90;;;;;;5137200;27;1515;-55
2022/10/15 15:19:39;;;;;;;;;;;16.80;99.90;;;;;;5135459;27;1699;-54
2022/10/15 15:22:21;;;;;;;;;;;16.70;99.90;;;;;;5121110;27;1351;-55
2022/10/15 15:25:00;;;;;;;;;;;16.60;99.90;;;;;;5097980;27;1674;-54
2022/10/15 15:27:38;;;;;;;;;;;16.60;99.90;;;;;;5135428;27;1312;-54
2022/10/15 15:30:18;;;;;;;;;;;16.60;99.90;;;;;;5119760;27;1607;-54
2022/10/15 15:32:55;;;;;;;;;;;16.60;99.90;;;;;;5112675;27;1769;-54
2022/10/15 15:35:35;;;;;;;;;;;16.90;99.90;;;;;;5135320;27;1678;-55
2022/10/15 15:38:13;;;;;;;;;;;17.20;99.90;;;;;;5113405;27;2061;-54
2022/10/15 15:40:51;;;;;;;;;;;17.50;99.90;;;;;;5131322;27;2008;-55
2022/10/15 15:43:29;;;;;;;;;;;17.50;99.90;;;;;;5122602;27;1769;-56
2022/10/15 15:46:07;;;;;;;;;;;17.30;99.90;;;;;;5134663;27;1808;-55
2022/10/15 15:48:46;;;;;;;;;;;17.00;99.90;;;;;;5129596;27;1819;-56
2022/10/15 15:51:25;;;;;;;;;;;16.60;99.90;;;;;;5114075;27;2238;-55